sensor_id;sensor_type;location;lat;lon;timestamp;P1;durP1;ratioP1;P2;durP2;ratioP2
70505;SDS011;58032;49.820;6.274;2023-11-21T00:01:04;4.90;;;1.90;;
70505;SDS011;58032;49.820;6.274;2023-11-21T00:03:31;3.33;;;1.15;;
70505;SDS011;58032;49.820;6.274;2023-11-21T00:05:59;3.22;;;1.05;;
70505;SDS011;58032;49.820;6.274;2023-11-21T00:08:27;3.23;;;1.00;;
70505;SDS011;58032;49.820;6.274;2023-11-21T00:10:54;4.60;;;1.25;;
70505;SDS011;58032;49.820;6.274;2023-11-21T00:13:21;3.63;;;1.05;;
70505;SDS011;58032;49.820;6.274;2023-11-21T00:15:48;3.90;;;0.75;;
70505;SDS011;58032;49.820;6.274;2023-11-21T00:18:16;4.05;;;1.10;;
70505;SDS011;58032;49.820;6.274;2023-11-21T00:20:43;3.00;;;0.73;;
70505;SDS011;58032;49.820;6.274;2023-11-21T00:23:10;3.00;;;0.90;;
70505;SDS011;58032;49.820;6.274;2023-11-21T00:25:37;2.60;;;0.80;;
70505;SDS011;58032;49.820;6.274;2023-11-21T00:28:03;2.20;;;0.60;;
70505;SDS011;58032;49.820;6.274;2023-11-21T00:30:30;1.83;;;0.40;;
70505;SDS011;58032;49.820;6.274;2023-11-21T00:32:57;4.83;;;0.97;;
70505;SDS011;58032;49.820;6.274;2023-11-21T00:35:24;3.33;;;0.93;;
70505;SDS011;58032;49.820;6.274;2023-11-21T00:37:53;3.65;;;0.52;;
70505;SDS011;58032;49.820;6.274;2023-11-21T00:40:19;3.00;;;1.00;;
70505;SDS011;58032;49.820;6.274;2023-11-21T00:42:47;2.35;;;0.45;;
70505;SDS011;58032;49.820;6.274;2023-11-21T00:45:14;3.13;;;1.00;;
70505;SDS011;58032;49.820;6.274;2023-11-21T00:47:41;5.07;;;1.17;;
70505;SDS011;58032;49.820;6.274;2023-11-21T00:50:09;4.53;;;1.20;;
70505;SDS011;58032;49.820;6.274;2023-11-21T00:52:36;3.85;;;1.48;;
70505;SDS011;58032;49.820;6.274;2023-11-21T00:55:03;3.00;;;0.70;;
70505;SDS011;58032;49.820;6.274;2023-11-21T00:57:30;5.50;;;1.23;;
70505;SDS011;58032;49.820;6.274;2023-11-21T00:59:57;4.15;;;1.48;;
70505;SDS011;58032;49.820;6.274;2023-11-21T01:02:24;4.05;;;1.50;;
70505;SDS011;58032;49.820;6.274;2023-11-21T01:04:52;3.97;;;1.25;;
70505;SDS011;58032;49.820;6.274;2023-11-21T01:07:19;4.90;;;1.58;;
70505;SDS011;58032;49.820;6.274;2023-11-21T01:09:47;5.00;;;1.70;;
70505;SDS011;58032;49.820;6.274;2023-11-21T01:12:13;4.88;;;1.75;;
70505;SDS011;58032;49.820;6.274;2023-11-21T01:14:40;5.00;;;1.88;;
70505;SDS011;58032;49.820;6.274;2023-11-21T01:17:07;4.18;;;1.90;;
70505;SDS011;58032;49.820;6.274;2023-11-21T01:19:34;5.72;;;1.95;;
70505;SDS011;58032;49.820;6.274;2023-11-21T01:22:01;7.73;;;2.27;;
70505;SDS011;58032;49.820;6.274;2023-11-21T01:24:27;3.90;;;1.77;;
70505;SDS011;58032;49.820;6.274;2023-11-21T01:26:54;5.43;;;2.00;;
70505;SDS011;58032;49.820;6.274;2023-11-21T01:29:21;4.95;;;1.98;;
70505;SDS011;58032;49.820;6.274;2023-11-21T01:31:48;4.72;;;2.25;;
70505;SDS011;58032;49.820;6.274;2023-11-21T01:34:15;6.83;;;2.40;;
70505;SDS011;58032;49.820;6.274;2023-11-21T01:36:42;5.35;;;1.88;;
70505;SDS011;58032;49.820;6.274;2023-11-21T01:39:08;4.88;;;2.13;;
70505;SDS011;58032;49.820;6.274;2023-11-21T01:41:39;5.10;;;1.80;;
70505;SDS011;58032;49.820;6.274;2023-11-21T01:44:06;5.43;;;2.17;;
70505;SDS011;58032;49.820;6.274;2023-11-21T01:46:35;6.30;;;2.20;;
70505;SDS011;58032;49.820;6.274;2023-11-21T01:49:02;5.55;;;2.38;;
70505;SDS011;58032;49.820;6.274;2023-11-21T01:51:30;4.85;;;1.95;;
70505;SDS011;58032;49.820;6.274;2023-11-21T01:53:57;4.38;;;1.90;;
70505;SDS011;58032;49.820;6.274;2023-11-21T01:56:25;5.38;;;1.85;;
70505;SDS011;58032;49.820;6.274;2023-11-21T01:58:52;8.30;;;2.03;;
70505;SDS011;58032;49.820;6.274;2023-11-21T02:01:20;5.55;;;2.20;;
70505;SDS011;58032;49.820;6.274;2023-11-21T02:03:47;4.78;;;1.73;;
70505;SDS011;58032;49.820;6.274;2023-11-21T02:06:14;5.70;;;2.10;;
70505;SDS011;58032;49.820;6.274;2023-11-21T02:08:41;5.72;;;1.65;;
70505;SDS011;58032;49.820;6.274;2023-11-21T02:11:11;6.10;;;2.40;;
70505;SDS011;58032;49.820;6.274;2023-11-21T02:13:41;5.15;;;2.30;;
70505;SDS011;58032;49.820;6.274;2023-11-21T02:16:10;5.05;;;1.67;;
70505;SDS011;58032;49.820;6.274;2023-11-21T02:18:39;5.07;;;1.45;;
70505;SDS011;58032;49.820;6.274;2023-11-21T02:21:06;5.97;;;2.05;;
70505;SDS011;58032;49.820;6.274;2023-11-21T02:23:33;5.10;;;2.07;;
70505;SDS011;58032;49.820;6.274;2023-11-21T02:26:00;5.38;;;1.90;;
70505;SDS011;58032;49.820;6.274;2023-11-21T02:28:30;6.70;;;2.03;;
70505;SDS011;58032;49.820;6.274;2023-11-21T02:30:57;6.00;;;2.00;;
70505;SDS011;58032;49.820;6.274;2023-11-21T02:33:25;6.55;;;1.92;;
70505;SDS011;58032;49.820;6.274;2023-11-21T02:35:52;9.20;;;1.70;;
70505;SDS011;58032;49.820;6.274;2023-11-21T02:38:21;5.72;;;1.90;;
70505;SDS011;58032;49.820;6.274;2023-11-21T02:40:48;5.88;;;1.58;;
70505;SDS011;58032;49.820;6.274;2023-11-21T02:43:16;5.25;;;1.48;;
70505;SDS011;58032;49.820;6.274;2023-11-21T02:45:44;5.13;;;1.50;;
70505;SDS011;58032;49.820;6.274;2023-11-21T02:48:11;8.10;;;1.90;;
70505;SDS011;58032;49.820;6.274;2023-11-21T02:50:38;5.18;;;1.30;;
70505;SDS011;58032;49.820;6.274;2023-11-21T02:53:06;6.00;;;1.75;;
70505;SDS011;58032;49.820;6.274;2023-11-21T02:55:33;6.07;;;1.80;;
70505;SDS011;58032;49.820;6.274;2023-11-21T02:58:03;5.25;;;1.67;;
70505;SDS011;58032;49.820;6.274;2023-11-21T03:00:32;6.53;;;1.53;;
70505;SDS011;58032;49.820;6.274;2023-11-21T03:02:59;4.13;;;1.23;;
70505;SDS011;58032;49.820;6.274;2023-11-21T03:05:27;5.93;;;1.33;;
70505;SDS011;58032;49.820;6.274;2023-11-21T03:07:55;4.32;;;0.85;;
70505;SDS011;58032;49.820;6.274;2023-11-21T03:10:22;3.95;;;1.13;;
70505;SDS011;58032;49.820;6.274;2023-11-21T03:12:49;3.97;;;1.30;;
70505;SDS011;58032;49.820;6.274;2023-11-21T03:15:16;3.28;;;0.90;;
70505;SDS011;58032;49.820;6.274;2023-11-21T03:17:43;3.20;;;0.93;;
70505;SDS011;58032;49.820;6.274;2023-11-21T03:20:10;4.43;;;1.30;;
70505;SDS011;58032;49.820;6.274;2023-11-21T03:22:37;4.32;;;0.90;;
70505;SDS011;58032;49.820;6.274;2023-11-21T03:25:05;4.70;;;0.80;;
70505;SDS011;58032;49.820;6.274;2023-11-21T03:27:32;4.10;;;1.15;;
70505;SDS011;58032;49.820;6.274;2023-11-21T03:29:59;3.78;;;0.80;;
70505;SDS011;58032;49.820;6.274;2023-11-21T03:32:26;3.92;;;1.20;;
70505;SDS011;58032;49.820;6.274;2023-11-21T03:34:53;3.45;;;1.00;;
70505;SDS011;58032;49.820;6.274;2023-11-21T03:37:21;4.00;;;1.20;;
70505;SDS011;58032;49.820;6.274;2023-11-21T03:39:48;3.97;;;0.98;;
70505;SDS011;58032;49.820;6.274;2023-11-21T03:42:15;4.15;;;1.30;;
70505;SDS011;58032;49.820;6.274;2023-11-21T03:44:42;4.63;;;1.10;;
70505;SDS011;58032;49.820;6.274;2023-11-21T03:47:09;4.15;;;0.98;;
70505;SDS011;58032;49.820;6.274;2023-11-21T03:49:35;3.80;;;1.00;;
70505;SDS011;58032;49.820;6.274;2023-11-21T03:52:02;5.10;;;1.30;;
70505;SDS011;58032;49.820;6.274;2023-11-21T03:54:31;3.40;;;1.10;;
70505;SDS011;58032;49.820;6.274;2023-11-21T03:56:58;4.53;;;1.13;;
70505;SDS011;58032;49.820;6.274;2023-11-21T03:59:24;3.70;;;0.88;;
70505;SDS011;58032;49.820;6.274;2023-11-21T04:01:51;2.97;;;0.77;;
70505;SDS011;58032;49.820;6.274;2023-11-21T04:04:18;5.47;;;1.10;;
70505;SDS011;58032;49.820;6.274;2023-11-21T04:06:46;4.28;;;1.40;;
70505;SDS011;58032;49.820;6.274;2023-11-21T04:09:13;6.68;;;1.00;;
70505;SDS011;58032;49.820;6.274;2023-11-21T04:11:39;5.03;;;1.30;;
70505;SDS011;58032;49.820;6.274;2023-11-21T04:14:06;3.30;;;1.00;;
70505;SDS011;58032;49.820;6.274;2023-11-21T04:16:33;3.78;;;1.10;;
70505;SDS011;58032;49.820;6.274;2023-11-21T04:19:00;3.75;;;1.00;;
70505;SDS011;58032;49.820;6.274;2023-11-21T04:21:27;3.47;;;1.00;;
70505;SDS011;58032;49.820;6.274;2023-11-21T04:23:54;4.07;;;1.30;;
70505;SDS011;58032;49.820;6.274;2023-11-21T04:26:21;3.40;;;1.10;;
70505;SDS011;58032;49.820;6.274;2023-11-21T04:28:48;4.15;;;1.13;;
70505;SDS011;58032;49.820;6.274;2023-11-21T04:31:15;4.85;;;1.42;;
70505;SDS011;58032;49.820;6.274;2023-11-21T04:33:41;4.80;;;1.45;;
70505;SDS011;58032;49.820;6.274;2023-11-21T04:36:08;4.50;;;1.15;;
70505;SDS011;58032;49.820;6.274;2023-11-21T04:38:35;5.70;;;1.00;;
70505;SDS011;58032;49.820;6.274;2023-11-21T04:41:02;4.93;;;1.20;;
70505;SDS011;58032;49.820;6.274;2023-11-21T04:43:29;3.38;;;0.93;;
70505;SDS011;58032;49.820;6.274;2023-11-21T04:45:56;4.03;;;0.93;;
70505;SDS011;58032;49.820;6.274;2023-11-21T04:48:23;3.90;;;1.30;;
70505;SDS011;58032;49.820;6.274;2023-11-21T04:50:49;4.20;;;1.20;;
70505;SDS011;58032;49.820;6.274;2023-11-21T04:53:17;3.80;;;1.15;;
70505;SDS011;58032;49.820;6.274;2023-11-21T04:55:44;4.68;;;1.13;;
70505;SDS011;58032;49.820;6.274;2023-11-21T04:58:10;5.60;;;1.08;;
70505;SDS011;58032;49.820;6.274;2023-11-21T05:00:38;3.63;;;1.38;;
70505;SDS011;58032;49.820;6.274;2023-11-21T05:03:06;5.17;;;1.30;;
70505;SDS011;58032;49.820;6.274;2023-11-21T05:05:33;6.28;;;1.17;;
70505;SDS011;58032;49.820;6.274;2023-11-21T05:08:00;4.53;;;1.08;;
70505;SDS011;58032;49.820;6.274;2023-11-21T05:10:28;5.20;;;1.17;;
70505;SDS011;58032;49.820;6.274;2023-11-21T05:12:55;3.33;;;1.17;;
70505;SDS011;58032;49.820;6.274;2023-11-21T05:15:22;6.60;;;1.20;;
70505;SDS011;58032;49.820;6.274;2023-11-21T05:17:50;4.25;;;1.13;;
70505;SDS011;58032;49.820;6.274;2023-11-21T05:20:18;6.45;;;1.27;;
70505;SDS011;58032;49.820;6.274;2023-11-21T05:22:48;4.60;;;1.35;;
70505;SDS011;58032;49.820;6.274;2023-11-21T05:25:15;5.72;;;1.60;;
70505;SDS011;58032;49.820;6.274;2023-11-21T05:27:44;5.10;;;1.20;;
70505;SDS011;58032;49.820;6.274;2023-11-21T05:30:10;6.40;;;2.00;;
70505;SDS011;58032;49.820;6.274;2023-11-21T05:32:39;6.75;;;2.05;;
70505;SDS011;58032;49.820;6.274;2023-11-21T05:35:06;4.78;;;1.55;;
70505;SDS011;58032;49.820;6.274;2023-11-21T05:37:38;4.20;;;1.30;;
70505;SDS011;58032;49.820;6.274;2023-11-21T05:40:06;5.00;;;1.50;;
70505;SDS011;58032;49.820;6.274;2023-11-21T05:42:34;7.53;;;1.77;;
70505;SDS011;58032;49.820;6.274;2023-11-21T05:45:00;8.27;;;2.15;;
70505;SDS011;58032;49.820;6.274;2023-11-21T05:47:43;6.78;;;2.03;;
70505;SDS011;58032;49.820;6.274;2023-11-21T05:50:10;7.88;;;2.00;;
70505;SDS011;58032;49.820;6.274;2023-11-21T05:52:38;5.67;;;1.70;;
70505;SDS011;58032;49.820;6.274;2023-11-21T05:55:06;3.42;;;1.20;;
70505;SDS011;58032;49.820;6.274;2023-11-21T05:57:36;4.95;;;1.48;;
70505;SDS011;58032;49.820;6.274;2023-11-21T06:00:04;5.95;;;1.63;;
70505;SDS011;58032;49.820;6.274;2023-11-21T06:02:40;4.80;;;1.60;;
70505;SDS011;58032;49.820;6.274;2023-11-21T06:05:08;6.47;;;1.90;;
70505;SDS011;58032;49.820;6.274;2023-11-21T06:07:34;4.50;;;1.35;;
70505;SDS011;58032;49.820;6.274;2023-11-21T06:10:05;9.13;;;1.90;;
70505;SDS011;58032;49.820;6.274;2023-11-21T06:12:34;4.35;;;1.38;;
70505;SDS011;58032;49.820;6.274;2023-11-21T06:15:04;5.53;;;2.00;;
70505;SDS011;58032;49.820;6.274;2023-11-21T06:17:32;6.27;;;2.00;;
70505;SDS011;58032;49.820;6.274;2023-11-21T06:19:58;6.90;;;2.40;;
70505;SDS011;58032;49.820;6.274;2023-11-21T06:22:25;6.03;;;1.90;;
70505;SDS011;58032;49.820;6.274;2023-11-21T06:24:52;5.13;;;1.67;;
70505;SDS011;58032;49.820;6.274;2023-11-21T06:27:19;5.40;;;1.83;;
70505;SDS011;58032;49.820;6.274;2023-11-21T06:29:46;7.03;;;2.00;;
70505;SDS011;58032;49.820;6.274;2023-11-21T06:32:13;9.80;;;1.92;;
70505;SDS011;58032;49.820;6.274;2023-11-21T06:34:43;5.63;;;1.55;;
70505;SDS011;58032;49.820;6.274;2023-11-21T06:37:09;6.50;;;2.10;;
70505;SDS011;58032;49.820;6.274;2023-11-21T06:39:37;6.80;;;2.00;;
70505;SDS011;58032;49.820;6.274;2023-11-21T06:42:04;8.03;;;2.03;;
70505;SDS011;58032;49.820;6.274;2023-11-21T06:44:31;4.82;;;1.67;;
70505;SDS011;58032;49.820;6.274;2023-11-21T06:47:00;6.93;;;2.03;;
70505;SDS011;58032;49.820;6.274;2023-11-21T06:49:26;6.20;;;2.20;;
70505;SDS011;58032;49.820;6.274;2023-11-21T06:51:53;5.22;;;2.05;;
70505;SDS011;58032;49.820;6.274;2023-11-21T06:54:21;5.33;;;1.97;;
70505;SDS011;58032;49.820;6.274;2023-11-21T06:56:49;8.00;;;2.33;;
70505;SDS011;58032;49.820;6.274;2023-11-21T06:59:16;6.28;;;2.13;;
70505;SDS011;58032;49.820;6.274;2023-11-21T07:01:42;6.32;;;1.90;;
70505;SDS011;58032;49.820;6.274;2023-11-21T07:04:09;8.50;;;2.05;;
70505;SDS011;58032;49.820;6.274;2023-11-21T07:06:36;7.17;;;2.27;;
70505;SDS011;58032;49.820;6.274;2023-11-21T07:09:04;7.97;;;2.40;;
70505;SDS011;58032;49.820;6.274;2023-11-21T07:11:31;6.85;;;2.20;;
70505;SDS011;58032;49.820;6.274;2023-11-21T07:13:57;6.75;;;2.35;;
70505;SDS011;58032;49.820;6.274;2023-11-21T07:16:24;6.47;;;2.45;;
70505;SDS011;58032;49.820;6.274;2023-11-21T07:18:51;7.33;;;2.50;;
70505;SDS011;58032;49.820;6.274;2023-11-21T07:21:18;7.75;;;2.13;;
70505;SDS011;58032;49.820;6.274;2023-11-21T07:23:47;6.75;;;2.40;;
70505;SDS011;58032;49.820;6.274;2023-11-21T07:26:14;6.05;;;2.42;;
70505;SDS011;58032;49.820;6.274;2023-11-21T07:28:40;8.02;;;2.55;;
70505;SDS011;58032;49.820;6.274;2023-11-21T07:31:07;7.40;;;2.57;;
70505;SDS011;58032;49.820;6.274;2023-11-21T07:33:34;6.70;;;2.78;;
70505;SDS011;58032;49.820;6.274;2023-11-21T07:36:01;6.53;;;2.33;;
70505;SDS011;58032;49.820;6.274;2023-11-21T07:38:27;7.07;;;2.83;;
70505;SDS011;58032;49.820;6.274;2023-11-21T07:40:54;6.72;;;2.55;;
70505;SDS011;58032;49.820;6.274;2023-11-21T07:43:21;7.47;;;2.90;;
70505;SDS011;58032;49.820;6.274;2023-11-21T07:45:50;6.70;;;2.42;;
70505;SDS011;58032;49.820;6.274;2023-11-21T07:48:16;7.90;;;2.30;;
70505;SDS011;58032;49.820;6.274;2023-11-21T07:50:43;7.78;;;2.72;;
70505;SDS011;58032;49.820;6.274;2023-11-21T07:53:10;10.02;;;2.65;;
70505;SDS011;58032;49.820;6.274;2023-11-21T07:55:37;9.43;;;2.77;;
70505;SDS011;58032;49.820;6.274;2023-11-21T07:58:04;7.05;;;3.03;;
70505;SDS011;58032;49.820;6.274;2023-11-21T08:00:31;8.70;;;2.65;;
70505;SDS011;58032;49.820;6.274;2023-11-21T08:02:58;8.13;;;2.67;;
70505;SDS011;58032;49.820;6.274;2023-11-21T08:05:25;10.57;;;3.00;;
70505;SDS011;58032;49.820;6.274;2023-11-21T08:07:53;8.17;;;2.90;;
70505;SDS011;58032;49.820;6.274;2023-11-21T08:10:20;8.35;;;3.10;;
70505;SDS011;58032;49.820;6.274;2023-11-21T08:12:48;9.25;;;3.40;;
70505;SDS011;58032;49.820;6.274;2023-11-21T08:15:17;8.43;;;3.28;;
70505;SDS011;58032;49.820;6.274;2023-11-21T08:17:43;9.57;;;3.05;;
70505;SDS011;58032;49.820;6.274;2023-11-21T08:20:10;9.10;;;3.20;;
70505;SDS011;58032;49.820;6.274;2023-11-21T08:22:37;8.48;;;3.00;;
70505;SDS011;58032;49.820;6.274;2023-11-21T08:25:07;9.50;;;3.40;;
70505;SDS011;58032;49.820;6.274;2023-11-21T08:27:34;12.38;;;3.13;;
70505;SDS011;58032;49.820;6.274;2023-11-21T08:30:02;9.95;;;3.28;;
70505;SDS011;58032;49.820;6.274;2023-11-21T08:32:29;10.00;;;3.07;;
70505;SDS011;58032;49.820;6.274;2023-11-21T08:34:59;9.23;;;3.47;;
70505;SDS011;58032;49.820;6.274;2023-11-21T08:37:26;8.85;;;3.53;;
70505;SDS011;58032;49.820;6.274;2023-11-21T08:39:57;8.48;;;2.33;;
70505;SDS011;58032;49.820;6.274;2023-11-21T08:42:24;9.30;;;3.42;;
70505;SDS011;58032;49.820;6.274;2023-11-21T08:44:51;7.63;;;3.20;;
70505;SDS011;58032;49.820;6.274;2023-11-21T08:47:18;9.27;;;3.60;;
70505;SDS011;58032;49.820;6.274;2023-11-21T08:49:45;13.63;;;3.55;;
70505;SDS011;58032;49.820;6.274;2023-11-21T08:52:12;8.93;;;3.17;;
70505;SDS011;58032;49.820;6.274;2023-11-21T08:54:39;7.93;;;3.58;;
70505;SDS011;58032;49.820;6.274;2023-11-21T08:57:05;7.50;;;3.30;;
70505;SDS011;58032;49.820;6.274;2023-11-21T08:59:32;7.88;;;3.25;;
70505;SDS011;58032;49.820;6.274;2023-11-21T09:01:59;8.15;;;3.38;;
70505;SDS011;58032;49.820;6.274;2023-11-21T09:04:26;12.20;;;3.75;;
70505;SDS011;58032;49.820;6.274;2023-11-21T09:06:53;8.45;;;3.28;;
70505;SDS011;58032;49.820;6.274;2023-11-21T09:09:20;10.20;;;3.73;;
70505;SDS011;58032;49.820;6.274;2023-11-21T09:11:47;9.23;;;3.75;;
70505;SDS011;58032;49.820;6.274;2023-11-21T09:14:15;8.63;;;3.28;;
70505;SDS011;58032;49.820;6.274;2023-11-21T09:16:44;8.18;;;3.78;;
70505;SDS011;58032;49.820;6.274;2023-11-21T09:19:11;9.60;;;3.70;;
70505;SDS011;58032;49.820;6.274;2023-11-21T09:21:38;9.83;;;3.37;;
70505;SDS011;58032;49.820;6.274;2023-11-21T09:24:05;9.57;;;3.58;;
70505;SDS011;58032;49.820;6.274;2023-11-21T09:26:32;12.52;;;3.83;;
70505;SDS011;58032;49.820;6.274;2023-11-21T09:28:59;9.00;;;3.13;;
70505;SDS011;58032;49.820;6.274;2023-11-21T09:31:25;9.48;;;3.60;;
70505;SDS011;58032;49.820;6.274;2023-11-21T09:33:54;11.73;;;3.83;;
70505;SDS011;58032;49.820;6.274;2023-11-21T09:36:21;12.80;;;3.90;;
70505;SDS011;58032;49.820;6.274;2023-11-21T09:38:50;12.82;;;4.03;;
70505;SDS011;58032;49.820;6.274;2023-11-21T09:41:21;10.30;;;3.90;;
70505;SDS011;58032;49.820;6.274;2023-11-21T09:43:51;10.30;;;4.60;;
70505;SDS011;58032;49.820;6.274;2023-11-21T09:46:21;8.93;;;4.00;;
70505;SDS011;58032;49.820;6.274;2023-11-21T09:48:50;10.90;;;4.18;;
70505;SDS011;58032;49.820;6.274;2023-11-21T09:51:19;10.00;;;3.60;;
70505;SDS011;58032;49.820;6.274;2023-11-21T09:53:47;11.57;;;3.92;;
70505;SDS011;58032;49.820;6.274;2023-11-21T09:56:15;9.50;;;3.33;;
70505;SDS011;58032;49.820;6.274;2023-11-21T09:58:45;11.37;;;3.70;;
70505;SDS011;58032;49.820;6.274;2023-11-21T10:01:13;11.30;;;4.38;;
70505;SDS011;58032;49.820;6.274;2023-11-21T10:03:40;9.05;;;4.05;;
70505;SDS011;58032;49.820;6.274;2023-11-21T10:06:08;9.75;;;4.40;;
70505;SDS011;58032;49.820;6.274;2023-11-21T10:08:37;10.23;;;4.15;;
70505;SDS011;58032;49.820;6.274;2023-11-21T10:11:04;9.50;;;4.13;;
70505;SDS011;58032;49.820;6.274;2023-11-21T10:13:33;9.75;;;4.00;;
70505;SDS011;58032;49.820;6.274;2023-11-21T10:16:01;7.97;;;3.45;;
70505;SDS011;58032;49.820;6.274;2023-11-21T10:18:32;9.57;;;3.75;;
70505;SDS011;58032;49.820;6.274;2023-11-21T10:21:00;8.20;;;3.50;;
70505;SDS011;58032;49.820;6.274;2023-11-21T10:23:27;12.37;;;4.63;;
70505;SDS011;58032;49.820;6.274;2023-11-21T10:25:54;11.25;;;4.30;;
70505;SDS011;58032;49.820;6.274;2023-11-21T10:28:26;9.82;;;3.63;;
70505;SDS011;58032;49.820;6.274;2023-11-21T10:30:52;9.65;;;4.30;;
70505;SDS011;58032;49.820;6.274;2023-11-21T10:33:26;9.40;;;3.58;;
70505;SDS011;58032;49.820;6.274;2023-11-21T10:35:53;11.37;;;3.90;;
70505;SDS011;58032;49.820;6.274;2023-11-21T10:38:21;9.55;;;3.60;;
70505;SDS011;58032;49.820;6.274;2023-11-21T10:40:50;9.63;;;3.75;;
70505;SDS011;58032;49.820;6.274;2023-11-21T10:43:17;11.25;;;3.85;;
70505;SDS011;58032;49.820;6.274;2023-11-21T10:45:44;9.73;;;3.95;;
70505;SDS011;58032;49.820;6.274;2023-11-21T10:48:14;8.87;;;3.00;;
70505;SDS011;58032;49.820;6.274;2023-11-21T10:50:46;8.73;;;3.40;;
70505;SDS011;58032;49.820;6.274;2023-11-21T10:53:13;8.82;;;3.22;;
70505;SDS011;58032;49.820;6.274;2023-11-21T10:55:40;6.82;;;2.92;;
70505;SDS011;58032;49.820;6.274;2023-11-21T10:58:08;8.35;;;3.35;;
70505;SDS011;58032;49.820;6.274;2023-11-21T11:00:37;8.77;;;2.83;;
70505;SDS011;58032;49.820;6.274;2023-11-21T11:03:06;7.80;;;3.60;;
70505;SDS011;58032;49.820;6.274;2023-11-21T11:05:40;9.27;;;3.85;;
70505;SDS011;58032;49.820;6.274;2023-11-21T11:08:08;8.88;;;3.55;;
70505;SDS011;58032;49.820;6.274;2023-11-21T11:10:36;9.35;;;3.55;;
70505;SDS011;58032;49.820;6.274;2023-11-21T11:13:03;8.43;;;3.10;;
70505;SDS011;58032;49.820;6.274;2023-11-21T11:15:31;8.73;;;2.88;;
70505;SDS011;58032;49.820;6.274;2023-11-21T11:17:58;6.85;;;2.60;;
70505;SDS011;58032;49.820;6.274;2023-11-21T11:20:27;8.80;;;3.30;;
70505;SDS011;58032;49.820;6.274;2023-11-21T11:28:26;9.05;;;3.25;;
70505;SDS011;58032;49.820;6.274;2023-11-21T11:30:58;6.95;;;2.83;;
70505;SDS011;58032;49.820;6.274;2023-11-21T11:33:39;8.57;;;3.20;;
70505;SDS011;58032;49.820;6.274;2023-11-21T11:36:17;6.78;;;2.47;;
70505;SDS011;58032;49.820;6.274;2023-11-21T11:38:46;9.27;;;2.33;;
70505;SDS011;58032;49.820;6.274;2023-11-21T11:41:13;5.70;;;1.83;;
70505;SDS011;58032;49.820;6.274;2023-11-21T11:43:50;7.10;;;2.38;;
70505;SDS011;58032;49.820;6.274;2023-11-21T11:46:17;5.53;;;2.20;;
70505;SDS011;58032;49.820;6.274;2023-11-21T11:48:43;4.30;;;1.60;;
70505;SDS011;58032;49.820;6.274;2023-11-21T11:51:12;5.20;;;1.67;;
70505;SDS011;58032;49.820;6.274;2023-11-21T11:53:41;8.20;;;2.50;;
70505;SDS011;58032;49.820;6.274;2023-11-21T11:56:28;4.78;;;1.67;;
70505;SDS011;58032;49.820;6.274;2023-11-21T11:58:57;6.43;;;2.15;;
70505;SDS011;58032;49.820;6.274;2023-11-21T12:01:25;7.40;;;2.20;;
70505;SDS011;58032;49.820;6.274;2023-11-21T12:06:41;6.78;;;2.42;;
70505;SDS011;58032;49.820;6.274;2023-11-21T12:09:17;8.85;;;2.33;;
70505;SDS011;58032;49.820;6.274;2023-11-21T12:11:45;6.65;;;2.03;;
70505;SDS011;58032;49.820;6.274;2023-11-21T12:14:12;6.38;;;1.98;;
70505;SDS011;58032;49.820;6.274;2023-11-21T12:16:40;7.10;;;2.13;;
70505;SDS011;58032;49.820;6.274;2023-11-21T12:19:07;6.32;;;2.05;;
70505;SDS011;58032;49.820;6.274;2023-11-21T12:21:33;5.80;;;2.53;;
70505;SDS011;58032;49.820;6.274;2023-11-21T12:24:01;6.85;;;2.60;;
70505;SDS011;58032;49.820;6.274;2023-11-21T12:26:27;6.47;;;2.20;;
70505;SDS011;58032;49.820;6.274;2023-11-21T12:28:54;4.77;;;1.67;;
70505;SDS011;58032;49.820;6.274;2023-11-21T12:31:22;4.88;;;2.00;;
70505;SDS011;58032;49.820;6.274;2023-11-21T12:33:49;6.80;;;1.92;;
70505;SDS011;58032;49.820;6.274;2023-11-21T12:36:17;6.03;;;1.60;;
70505;SDS011;58032;49.820;6.274;2023-11-21T12:38:43;7.43;;;1.88;;
70505;SDS011;58032;49.820;6.274;2023-11-21T12:41:10;6.00;;;1.80;;
70505;SDS011;58032;49.820;6.274;2023-11-21T12:43:37;5.35;;;1.67;;
70505;SDS011;58032;49.820;6.274;2023-11-21T12:46:09;6.13;;;1.77;;
70505;SDS011;58032;49.820;6.274;2023-11-21T12:48:39;6.47;;;1.85;;
70505;SDS011;58032;49.820;6.274;2023-11-21T12:51:10;5.97;;;1.85;;
70505;SDS011;58032;49.820;6.274;2023-11-21T12:53:45;5.17;;;1.80;;
70505;SDS011;58032;49.820;6.274;2023-11-21T12:56:13;3.42;;;1.20;;
70505;SDS011;58032;49.820;6.274;2023-11-21T12:58:44;4.32;;;1.30;;
70505;SDS011;58032;49.820;6.274;2023-11-21T13:01:12;6.45;;;1.90;;
70505;SDS011;58032;49.820;6.274;2023-11-21T13:03:48;8.75;;;2.00;;
70505;SDS011;58032;49.820;6.274;2023-11-21T13:06:15;4.23;;;1.40;;
70505;SDS011;58032;49.820;6.274;2023-11-21T13:08:43;6.88;;;2.03;;
70505;SDS011;58032;49.820;6.274;2023-11-21T13:11:11;6.22;;;1.92;;
70505;SDS011;58032;49.820;6.274;2023-11-21T13:13:39;5.10;;;2.05;;
70505;SDS011;58032;49.820;6.274;2023-11-21T13:16:07;5.23;;;1.83;;
70505;SDS011;58032;49.820;6.274;2023-11-21T13:18:35;5.47;;;1.65;;
70505;SDS011;58032;49.820;6.274;2023-11-21T13:21:03;6.32;;;1.67;;
70505;SDS011;58032;49.820;6.274;2023-11-21T13:23:35;5.32;;;1.58;;
70505;SDS011;58032;49.820;6.274;2023-11-21T13:26:05;4.78;;;1.48;;
70505;SDS011;58032;49.820;6.274;2023-11-21T13:28:33;4.70;;;1.63;;
70505;SDS011;58032;49.820;6.274;2023-11-21T13:31:00;6.63;;;2.08;;
70505;SDS011;58032;49.820;6.274;2023-11-21T13:33:47;6.15;;;1.58;;
70505;SDS011;58032;49.820;6.274;2023-11-21T13:36:24;8.55;;;2.38;;
70505;SDS011;58032;49.820;6.274;2023-11-21T13:38:52;6.95;;;1.95;;
70505;SDS011;58032;49.820;6.274;2023-11-21T13:41:21;5.80;;;2.10;;
70505;SDS011;58032;49.820;6.274;2023-11-21T13:43:57;5.25;;;1.48;;
70505;SDS011;58032;49.820;6.274;2023-11-21T13:46:32;4.43;;;1.33;;
70505;SDS011;58032;49.820;6.274;2023-11-21T13:49:03;4.80;;;1.60;;
70505;SDS011;58032;49.820;6.274;2023-11-21T13:51:36;6.45;;;1.80;;
70505;SDS011;58032;49.820;6.274;2023-11-21T13:54:11;7.07;;;1.53;;
70505;SDS011;58032;49.820;6.274;2023-11-21T13:56:37;7.65;;;1.30;;
70505;SDS011;58032;49.820;6.274;2023-11-21T13:59:06;7.55;;;1.95;;
70505;SDS011;58032;49.820;6.274;2023-11-21T14:01:46;4.90;;;1.27;;
70505;SDS011;58032;49.820;6.274;2023-11-21T14:04:23;5.03;;;1.33;;
70505;SDS011;58032;49.820;6.274;2023-11-21T14:07:00;4.17;;;1.20;;
70505;SDS011;58032;49.820;6.274;2023-11-21T14:09:37;5.78;;;1.42;;
70505;SDS011;58032;49.820;6.274;2023-11-21T14:12:10;5.70;;;1.38;;
70505;SDS011;58032;49.820;6.274;2023-11-21T14:14:39;6.43;;;1.60;;
70505;SDS011;58032;49.820;6.274;2023-11-21T14:17:06;4.25;;;1.30;;
70505;SDS011;58032;49.820;6.274;2023-11-21T14:19:35;7.83;;;1.70;;
70505;SDS011;58032;49.820;6.274;2023-11-21T14:22:07;5.85;;;1.80;;
70505;SDS011;58032;49.820;6.274;2023-11-21T14:24:37;5.57;;;1.35;;
70505;SDS011;58032;49.820;6.274;2023-11-21T14:27:04;7.47;;;1.65;;
70505;SDS011;58032;49.820;6.274;2023-11-21T14:29:32;4.70;;;1.65;;
70505;SDS011;58032;49.820;6.274;2023-11-21T14:32:05;6.03;;;1.30;;
70505;SDS011;58032;49.820;6.274;2023-11-21T14:34:32;5.63;;;1.75;;
70505;SDS011;58032;49.820;6.274;2023-11-21T14:36:59;4.03;;;1.08;;
70505;SDS011;58032;49.820;6.274;2023-11-21T14:39:25;7.75;;;1.10;;
70505;SDS011;58032;49.820;6.274;2023-11-21T14:41:56;6.63;;;1.27;;
70505;SDS011;58032;49.820;6.274;2023-11-21T14:44:24;4.70;;;1.13;;
70505;SDS011;58032;49.820;6.274;2023-11-21T14:46:54;4.95;;;1.38;;
70505;SDS011;58032;49.820;6.274;2023-11-21T14:49:22;4.72;;;1.15;;
70505;SDS011;58032;49.820;6.274;2023-11-21T14:51:51;5.22;;;0.90;;
70505;SDS011;58032;49.820;6.274;2023-11-21T14:54:27;5.60;;;0.90;;
70505;SDS011;58032;49.820;6.274;2023-11-21T14:57:06;4.23;;;1.47;;
70505;SDS011;58032;49.820;6.274;2023-11-21T14:59:42;4.18;;;1.05;;
70505;SDS011;58032;49.820;6.274;2023-11-21T15:02:09;8.68;;;1.40;;